Time;durP1;ratioP1;P1;durP2;ratioP2;P2;SDS_P1;SDS_P2;PMS_P1;PMS_P2;Temp;Humidity;BMP_temperature;BMP_pressure;BME280_temperature;BME280_humidity;BME280_pressure;Samples;Min_cycle;Max_cycle;Signal;HPM_P1;HPM_P2
2023/01/21 00:01:20;;;;;;;7.35;5.95;;;0.30;59.90;;;;;;4966227;28;20042;-76
2023/01/21 00:03:46;;;;;;;8.30;6.00;;;0.30;59.90;;;;;;4954645;28;20031;-76
2023/01/21 00:06:16;;;;;;;6.43;5.25;;;0.30;59.90;;;;;;4971557;28;20130;-75
2023/01/21 00:08:42;;;;;;;9.45;6.20;;;0.30;59.90;;;;;;4970724;28;20033;-76
2023/01/21 00:11:10;;;;;;;12.43;6.53;;;0.30;59.90;;;;;;4956395;28;20036;-76
2023/01/21 00:13:36;;;;;;;8.27;6.45;;;0.20;59.70;;;;;;4970547;28;20043;-76
2023/01/21 00:16:03;;;;;;;8.10;5.70;;;0.20;59.80;;;;;;4981655;28;20085;-76
2023/01/21 00:18:30;;;;;;;9.00;6.88;;;0.20;59.80;;;;;;4971432;28;20062;-76
2023/01/21 00:20:57;;;;;;;10.13;6.45;;;0.20;59.80;;;;;;4973861;28;20037;-76
2023/01/21 00:23:23;;;;;;;8.15;6.03;;;0.20;59.80;;;;;;4980514;28;20050;-77
2023/01/21 00:25:55;;;;;;;7.97;6.45;;;0.20;59.80;;;;;;4983620;28;20039;-77
2023/01/21 00:28:21;;;;;;;9.67;6.77;;;0.20;59.80;;;;;;4970453;28;20438;-76
2023/01/21 00:30:47;;;;;;;7.50;6.10;;;0.20;59.80;;;;;;4972588;28;20035;-77
2023/01/21 00:33:13;;;;;;;10.23;7.72;;;0.20;59.80;;;;;;4966046;28;20410;-77
2023/01/21 00:35:40;;;;;;;9.77;7.00;;;0.10;59.60;;;;;;4963539;28;20537;-77
2023/01/21 00:38:06;;;;;;;11.30;6.45;;;0.10;59.70;;;;;;4949795;28;20050;-77
2023/01/21 00:40:32;;;;;;;10.48;7.47;;;0.10;59.60;;;;;;4958576;28;20155;-77
2023/01/21 00:42:58;;;;;;;10.15;7.10;;;0.10;59.70;;;;;;4950401;28;20049;-77
2023/01/21 00:45:24;;;;;;;10.55;6.70;;;0.10;59.70;;;;;;4948598;28;20036;-77
2023/01/21 00:47:50;;;;;;;10.00;6.90;;;0.10;59.70;;;;;;4962634;28;20162;-76
2023/01/21 00:50:16;;;;;;;11.75;7.68;;;0.10;59.70;;;;;;4944581;28;20114;-77
2023/01/21 00:52:42;;;;;;;10.23;7.38;;;0.10;59.70;;;;;;4948985;28;20502;-77
2023/01/21 00:55:08;;;;;;;8.00;6.93;;;0.10;59.70;;;;;;4948338;29;20595;-77
2023/01/21 00:57:34;;;;;;;10.52;7.25;;;0.10;59.70;;;;;;4944020;28;20082;-76
2023/01/21 01:00:00;;;;;;;10.88;7.78;;;0.10;59.70;;;;;;4944202;28;20062;-76
2023/01/21 01:02:26;;;;;;;9.75;7.13;;;0.10;59.60;;;;;;4949485;28;20035;-77
2023/01/21 01:04:52;;;;;;;10.90;7.78;;;0.10;59.60;;;;;;4947191;28;20031;-77
2023/01/21 01:07:18;;;;;;;9.70;7.43;;;0.10;59.60;;;;;;4948726;28;20226;-76
2023/01/21 01:09:43;;;;;;;9.18;7.10;;;0.10;59.60;;;;;;4948809;28;20118;-76
2023/01/21 01:12:09;;;;;;;10.68;7.53;;;0.10;59.60;;;;;;4950994;28;20039;-76
2023/01/21 01:14:35;;;;;;;13.13;7.38;;;0.10;59.60;;;;;;4970466;28;20043;-77
2023/01/21 01:17:01;;;;;;;9.85;7.32;;;0.00;59.40;;;;;;4952767;28;20077;-76
2023/01/21 01:19:27;;;;;;;12.23;7.38;;;0.00;59.40;;;;;;4963269;28;20023;-77
2023/01/21 01:21:53;;;;;;;12.07;7.50;;;0.10;59.60;;;;;;4946605;28;20039;-76
2023/01/21 01:24:19;;;;;;;9.18;6.95;;;0.00;59.50;;;;;;4966679;28;20505;-77
2023/01/21 01:26:45;;;;;;;9.10;7.63;;;0.00;59.50;;;;;;4959717;28;20039;-77
2023/01/21 01:29:14;;;;;;;9.23;7.47;;;0.10;59.70;;;;;;4979289;28;20038;-77
2023/01/21 01:31:42;;;;;;;11.82;7.90;;;0.00;59.50;;;;;;4963000;28;20035;-76
2023/01/21 01:34:08;;;;;;;11.55;8.38;;;0.00;59.50;;;;;;4973133;28;20147;-76
2023/01/21 01:36:34;;;;;;;10.57;7.55;;;0.00;59.50;;;;;;4949052;28;20042;-75
2023/01/21 01:39:00;;;;;;;10.82;7.55;;;0.00;59.50;;;;;;4946907;28;20658;-76
2023/01/21 01:41:28;;;;;;;10.88;7.35;;;0.00;59.50;;;;;;4957092;28;20108;-76
2023/01/21 01:43:56;;;;;;;10.38;7.80;;;-0.10;59.30;;;;;;4957873;28;20078;-76
2023/01/21 01:46:24;;;;;;;9.25;7.53;;;-0.10;59.30;;;;;;4959710;28;20059;-76
2023/01/21 01:48:57;;;;;;;11.38;8.80;;;-0.10;59.40;;;;;;4934897;28;20035;-76
2023/01/21 01:51:31;;;;;;;12.40;8.35;;;-0.10;59.40;;;;;;4955501;28;20034;-76
2023/01/21 01:53:58;;;;;;;9.55;7.53;;;-0.10;59.40;;;;;;4961785;28;20060;-76
2023/01/21 01:56:25;;;;;;;8.93;7.97;;;-0.10;59.40;;;;;;4944739;28;20043;-77
2023/01/21 01:58:52;;;;;;;10.35;7.93;;;-0.10;59.40;;;;;;4945394;28;20430;-75
2023/01/21 02:01:18;;;;;;;10.07;7.95;;;-0.10;59.40;;;;;;4953881;28;20050;-77
2023/01/21 02:03:53;;;;;;;13.25;8.75;;;-0.10;59.40;;;;;;4961349;28;20055;-76
2023/01/21 02:06:19;;;;;;;12.82;8.82;;;-0.10;59.30;;;;;;4949127;28;20105;-78
2023/01/21 02:08:46;;;;;;;14.07;8.50;;;-0.10;59.30;;;;;;4949373;28;20043;-77
2023/01/21 02:11:17;;;;;;;11.02;8.55;;;-0.10;59.30;;;;;;4951361;28;20031;-77
2023/01/21 02:13:53;;;;;;;13.45;8.60;;;-0.20;59.10;;;;;;4946849;28;20129;-77
2023/01/21 02:16:25;;;;;;;11.63;8.00;;;-0.10;59.30;;;;;;4935271;28;20095;-77
2023/01/21 02:19:29;;;;;;;16.90;9.45;;;-0.20;59.10;;;;;;4941477;28;20052;-76
2023/01/21 02:22:20;;;;;;;10.52;8.45;;;-0.10;59.30;;;;;;4946717;28;20665;-76
2023/01/21 02:25:20;;;;;;;10.27;8.55;;;-0.20;59.10;;;;;;4962375;28;20031;-75
2023/01/21 02:28:23;;;;;;;12.75;9.20;;;-0.20;59.10;;;;;;4941646;28;20054;-77
2023/01/21 02:31:32;;;;;;;14.38;8.60;;;-0.20;59.10;;;;;;4947363;28;20066;-76
2023/01/21 02:34:15;;;;;;;15.07;8.95;;;-0.20;59.10;;;;;;4950994;28;20043;-76
2023/01/21 02:37:04;;;;;;;9.70;8.40;;;-0.20;59.10;;;;;;4949825;28;20049;-75
2023/01/21 02:40:01;;;;;;;13.05;9.13;;;-0.20;59.10;;;;;;4944620;28;20061;-76
2023/01/21 02:42:44;;;;;;;14.40;9.55;;;-0.20;59.10;;;;;;4945980;28;20039;-76
2023/01/21 02:45:28;;;;;;;13.57;8.63;;;-0.30;59.00;;;;;;4947897;28;20487;-76
2023/01/21 02:47:54;;;;;;;11.32;9.25;;;-0.30;59.00;;;;;;4964732;28;20451;-76
2023/01/21 02:50:31;;;;;;;12.63;9.50;;;-0.30;59.00;;;;;;4958750;28;20052;-76
2023/01/21 02:52:59;;;;;;;12.20;10.35;;;-0.30;59.00;;;;;;4967632;28;20080;-76
2023/01/21 02:55:34;;;;;;;13.75;9.77;;;-0.30;59.00;;;;;;4968483;28;20070;-77
2023/01/21 02:58:09;;;;;;;11.82;9.32;;;-0.30;59.00;;;;;;4953566;28;20042;-77
2023/01/21 03:00:47;;;;;;;17.42;9.93;;;-0.30;59.10;;;;;;4983088;28;20374;-76
2023/01/21 03:03:34;;;;;;;15.48;10.48;;;-0.30;59.10;;;;;;4945233;28;20066;-76
2023/01/21 03:06:11;;;;;;;13.40;11.00;;;-0.30;59.10;;;;;;4966001;28;20166;-76
2023/01/21 03:09:03;;;;;;;15.60;11.70;;;-0.30;59.10;;;;;;4962029;28;20031;-76
2023/01/21 03:11:30;;;;;;;16.60;11.77;;;-0.30;59.00;;;;;;4968727;28;20049;-76
2023/01/21 03:17:41;;;;;;;14.45;11.60;;;-0.30;59.10;;;;;;4958083;28;20075;-76
2023/01/21 03:20:12;;;;;;;16.48;11.27;;;-0.30;59.00;;;;;;4960579;28;20042;-76
2023/01/21 03:22:39;;;;;;;14.48;11.30;;;-0.30;59.00;;;;;;4968599;28;20085;-75
2023/01/21 03:25:07;;;;;;;14.93;11.77;;;-0.30;59.00;;;;;;4960009;28;20043;-74
2023/01/21 03:27:35;;;;;;;16.25;12.60;;;-0.30;59.10;;;;;;4967728;28;20035;-74
2023/01/21 03:30:10;;;;;;;16.50;12.75;;;-0.30;59.10;;;;;;4966778;28;20577;-74
2023/01/21 03:32:39;;;;;;;18.10;12.88;;;-0.30;59.10;;;;;;4956225;28;20023;-74
2023/01/21 03:35:06;;;;;;;16.38;12.82;;;-0.30;59.10;;;;;;4963011;28;20483;-74
2023/01/21 03:37:38;;;;;;;18.70;12.70;;;-0.30;59.10;;;;;;4943973;28;20043;-76
2023/01/21 03:40:04;;;;;;;18.70;14.10;;;-0.30;59.10;;;;;;4963949;28;20031;-76
2023/01/21 03:42:30;;;;;;;17.48;12.65;;;-0.30;59.10;;;;;;4960207;28;20834;-76
2023/01/21 03:44:56;;;;;;;20.20;13.18;;;-0.30;59.10;;;;;;4964285;28;20506;-76
2023/01/21 03:47:33;;;;;;;18.02;13.15;;;-0.30;59.10;;;;;;4964139;28;20541;-75
2023/01/21 03:50:02;;;;;;;15.40;12.52;;;-0.30;59.10;;;;;;4968100;28;20058;-75
2023/01/21 03:52:28;;;;;;;18.20;12.85;;;-0.30;59.10;;;;;;4951015;28;20039;-75
2023/01/21 03:54:55;;;;;;;19.10;13.40;;;-0.30;59.10;;;;;;4936208;28;20027;-75
2023/01/21 03:57:21;;;;;;;19.25;14.13;;;-0.30;59.70;;;;;;4953537;28;20126;-76
2023/01/21 03:59:47;;;;;;;17.10;13.15;;;-0.30;59.10;;;;;;4959469;28;20042;-75
2023/01/21 04:02:18;;;;;;;17.73;12.52;;;-0.30;59.30;;;;;;4955073;28;20031;-75
2023/01/21 04:04:46;;;;;;;21.30;14.32;;;-0.30;59.20;;;;;;4948848;28;20070;-75
2023/01/21 04:07:13;;;;;;;17.65;13.27;;;-0.30;59.20;;;;;;4967266;28;20077;-75
2023/01/21 04:09:39;;;;;;;18.05;13.70;;;-0.30;59.20;;;;;;4965979;28;20033;-75
2023/01/21 04:12:05;;;;;;;16.13;13.57;;;-0.30;59.20;;;;;;4942592;28;20043;-76
2023/01/21 04:14:31;;;;;;;14.32;12.65;;;-0.30;59.20;;;;;;4977096;28;20097;-75
2023/01/21 04:16:57;;;;;;;19.98;12.95;;;-0.30;59.20;;;;;;4968249;28;20648;-77
2023/01/21 04:19:23;;;;;;;20.45;13.38;;;-0.30;59.20;;;;;;4964850;28;20043;-75
2023/01/21 04:21:49;;;;;;;16.98;13.15;;;-0.30;59.20;;;;;;4962078;28;20114;-75
2023/01/21 04:24:15;;;;;;;18.90;13.82;;;-0.30;59.20;;;;;;4961836;28;20060;-76
2023/01/21 04:26:41;;;;;;;19.50;13.52;;;-0.30;59.10;;;;;;4965258;28;20466;-74
2023/01/21 04:29:07;;;;;;;18.77;13.75;;;-0.30;59.10;;;;;;4956192;28;20034;-76
2023/01/21 04:31:33;;;;;;;19.50;12.65;;;-0.20;59.30;;;;;;4967433;28;20031;-75
2023/01/21 04:33:58;;;;;;;14.32;12.15;;;-0.20;59.40;;;;;;4954659;28;20063;-76
2023/01/21 04:36:24;;;;;;;19.45;14.05;;;-0.30;59.20;;;;;;4952028;28;20023;-74
2023/01/21 04:38:50;;;;;;;18.60;12.98;;;-0.20;59.40;;;;;;4957733;28;20069;-75
2023/01/21 04:41:16;;;;;;;19.33;13.95;;;-0.30;59.20;;;;;;4962898;28;20058;-77
2023/01/21 04:43:42;;;;;;;17.15;13.02;;;-0.30;59.20;;;;;;4958682;28;20471;-75
2023/01/21 04:46:08;;;;;;;19.63;13.63;;;-0.30;59.20;;;;;;4966011;28;20047;-76
2023/01/21 04:48:34;;;;;;;20.45;14.15;;;-0.30;59.20;;;;;;4966804;28;20038;-76
2023/01/21 04:51:00;;;;;;;20.00;13.55;;;-0.30;59.20;;;;;;4951076;28;20094;-76
2023/01/21 04:53:26;;;;;;;18.67;14.07;;;-0.30;59.20;;;;;;4959493;28;20491;-76
2023/01/21 04:55:52;;;;;;;19.35;13.77;;;-0.30;59.20;;;;;;4960908;28;20130;-76
2023/01/21 04:58:19;;;;;;;19.25;13.82;;;-0.30;59.20;;;;;;4964336;28;20050;-76
2023/01/21 05:00:45;;;;;;;17.05;13.32;;;-0.30;59.30;;;;;;4966101;28;20117;-76
2023/01/21 05:03:10;;;;;;;20.35;13.57;;;-0.40;59.10;;;;;;4958725;28;20126;-76
2023/01/21 05:05:36;;;;;;;18.80;13.27;;;-0.40;59.10;;;;;;4963456;28;20066;-76
2023/01/21 05:08:02;;;;;;;22.25;14.20;;;-0.40;59.10;;;;;;4964610;28;20077;-75
2023/01/21 05:10:29;;;;;;;14.68;11.90;;;-0.50;58.90;;;;;;4961762;28;20058;-77
2023/01/21 05:12:55;;;;;;;17.25;13.15;;;-0.50;58.90;;;;;;4952073;28;20606;-76
2023/01/21 05:15:20;;;;;;;19.75;13.38;;;-0.40;59.10;;;;;;4965066;28;20027;-76
2023/01/21 05:17:46;;;;;;;20.35;12.95;;;-0.50;59.00;;;;;;4967154;28;20046;-77
2023/01/21 05:20:12;;;;;;;17.52;12.98;;;-0.50;59.00;;;;;;4961759;28;20549;-76
2023/01/21 05:22:38;;;;;;;17.77;12.48;;;-0.50;59.00;;;;;;4962169;28;20156;-78
2023/01/21 05:25:05;;;;;;;17.30;13.88;;;-0.50;59.00;;;;;;4967373;28;20034;-77
2023/01/21 05:27:31;;;;;;;18.38;13.40;;;-0.50;59.00;;;;;;4975569;28;20047;-76
2023/01/21 05:29:57;;;;;;;17.02;11.98;;;-0.50;59.00;;;;;;4966539;28;20136;-77
2023/01/21 05:32:23;;;;;;;20.73;13.70;;;-0.50;59.00;;;;;;4967747;28;20038;-76
2023/01/21 05:34:49;;;;;;;16.52;12.02;;;-0.50;59.00;;;;;;4966993;28;20494;-77
2023/01/21 05:37:15;;;;;;;15.88;12.13;;;-0.60;58.80;;;;;;4960187;28;20039;-76
2023/01/21 05:39:40;;;;;;;18.63;12.80;;;-0.60;58.80;;;;;;4966818;28;20027;-76
2023/01/21 05:42:06;;;;;;;18.48;13.40;;;-0.60;58.80;;;;;;4965011;28;20118;-77
2023/01/21 05:44:32;;;;;;;17.77;13.70;;;-0.60;58.80;;;;;;4979148;28;20322;-76
2023/01/21 05:46:58;;;;;;;16.90;13.50;;;-0.70;58.70;;;;;;4953679;28;20439;-77
2023/01/21 05:49:24;;;;;;;18.08;12.75;;;-0.60;58.80;;;;;;4956943;28;20114;-76
2023/01/21 05:51:50;;;;;;;18.75;13.10;;;-0.70;58.70;;;;;;4958511;28;20035;-76
2023/01/21 05:54:16;;;;;;;17.38;12.90;;;-0.70;58.70;;;;;;4965172;28;20034;-76
2023/01/21 05:56:42;;;;;;;17.75;13.00;;;-0.70;58.60;;;;;;4957541;28;20042;-76
2023/01/21 05:59:08;;;;;;;18.02;12.23;;;-0.70;58.70;;;;;;4960268;28;20027;-76
2023/01/21 06:01:34;;;;;;;18.08;13.30;;;-0.70;58.70;;;;;;4964438;28;20034;-76
2023/01/21 06:04:00;;;;;;;14.85;12.32;;;-0.70;58.70;;;;;;4956697;28;20035;-76
2023/01/21 06:06:26;;;;;;;16.67;12.48;;;-0.70;58.70;;;;;;4958489;28;20557;-75
2023/01/21 06:08:52;;;;;;;20.58;13.30;;;-0.80;58.50;;;;;;4966162;28;20038;-76
2023/01/21 06:11:18;;;;;;;16.35;13.07;;;-0.80;58.50;;;;;;4965379;28;20058;-75
2023/01/21 06:13:44;;;;;;;16.90;12.18;;;-0.80;58.50;;;;;;4955652;28;20881;-75
2023/01/21 06:16:10;;;;;;;20.23;13.85;;;-0.80;58.50;;;;;;4965954;28;20123;-76
2023/01/21 06:18:36;;;;;;;18.15;12.85;;;-0.80;58.50;;;;;;4965804;28;20150;-75
2023/01/21 06:21:02;;;;;;;20.05;14.25;;;-0.80;58.50;;;;;;4964165;28;20572;-74
2023/01/21 06:23:28;;;;;;;21.25;15.00;;;-0.80;58.50;;;;;;4956645;28;20050;-75
2023/01/21 06:26:01;;;;;;;19.45;13.25;;;-0.80;58.50;;;;;;4962955;28;20046;-76
2023/01/21 06:28:28;;;;;;;19.48;14.25;;;-0.80;58.50;;;;;;4965079;28;20038;-76
2023/01/21 06:30:54;;;;;;;19.08;14.70;;;-0.80;58.50;;;;;;4963386;28;20038;-75
2023/01/21 06:33:20;;;;;;;20.95;15.02;;;-0.80;58.50;;;;;;4955665;28;20031;-76
2023/01/21 06:35:46;;;;;;;18.40;13.80;;;-0.80;58.50;;;;;;4962059;28;20043;-76
2023/01/21 06:38:13;;;;;;;21.08;13.93;;;-0.80;58.50;;;;;;4951989;28;20349;-75
2023/01/21 06:40:39;;;;;;;18.60;13.98;;;-0.80;58.50;;;;;;4956087;28;20031;-77
2023/01/21 06:43:05;;;;;;;20.90;14.30;;;-0.80;58.50;;;;;;4964667;28;20101;-77
2023/01/21 06:45:31;;;;;;;21.20;14.77;;;-0.80;58.50;;;;;;4965270;28;20049;-76
2023/01/21 06:47:57;;;;;;;21.98;15.20;;;-0.80;58.50;;;;;;4960696;28;20142;-77
2023/01/21 06:50:23;;;;;;;20.48;14.75;;;-0.80;58.50;;;;;;4952880;28;20039;-76
2023/01/21 06:52:49;;;;;;;20.23;15.57;;;-0.80;58.50;;;;;;4952267;28;20031;-75
2023/01/21 06:55:15;;;;;;;25.40;17.75;;;-0.80;58.50;;;;;;4964070;28;20122;-77
2023/01/21 06:57:42;;;;;;;24.42;15.73;;;-0.70;58.70;;;;;;4963872;28;20472;-78
2023/01/21 07:00:09;;;;;;;23.20;17.25;;;-0.70;58.70;;;;;;4962185;28;20038;-86
2023/01/21 07:02:35;;;;;;;25.58;16.05;;;-0.70;58.70;;;;;;4964333;28;20127;-79
2023/01/21 07:05:01;;;;;;;25.92;16.75;;;-0.60;58.80;;;;;;4959074;28;20351;-80
2023/01/21 07:07:27;;;;;;;23.58;15.73;;;-0.60;58.80;;;;;;4967092;28;20125;-81
2023/01/21 07:09:53;;;;;;;21.88;15.57;;;-0.60;58.80;;;;;;4950520;28;20070;-82
2023/01/21 07:12:19;;;;;;;20.58;15.93;;;-0.60;58.80;;;;;;4963986;28;20069;-81
2023/01/21 07:14:45;;;;;;;24.67;15.88;;;-0.60;58.80;;;;;;4948912;28;20612;-79
2023/01/21 07:17:11;;;;;;;28.42;16.60;;;-0.60;58.80;;;;;;4963700;28;20038;-76
2023/01/21 07:19:37;;;;;;;19.08;14.55;;;-0.60;58.80;;;;;;4959502;28;20035;-77
2023/01/21 07:22:03;;;;;;;18.38;14.73;;;-0.60;58.80;;;;;;4963336;28;20066;-78
2023/01/21 07:24:29;;;;;;;20.23;14.77;;;-0.60;58.90;;;;;;4962002;28;20038;-81
2023/01/21 07:26:55;;;;;;;24.83;16.17;;;-0.70;58.70;;;;;;4963298;28;20035;-80
2023/01/21 07:29:22;;;;;;;20.13;14.43;;;-0.70;58.80;;;;;;4964533;28;20031;-81
2023/01/21 07:31:48;;;;;;;20.30;15.68;;;-0.70;58.80;;;;;;4965020;28;20537;-78
2023/01/21 07:34:14;;;;;;;23.67;15.52;;;-0.70;58.80;;;;;;4974519;28;20047;-80
2023/01/21 07:36:40;;;;;;;22.25;15.77;;;-0.70;58.80;;;;;;4953640;28;20061;-80
2023/01/21 07:39:06;;;;;;;20.45;15.18;;;-0.70;58.90;;;;;;4947886;28;20046;-76
2023/01/21 07:41:32;;;;;;;22.83;15.88;;;-0.70;58.90;;;;;;4943803;28;20707;-76
2023/01/21 07:43:58;;;;;;;22.00;15.63;;;-0.70;58.90;;;;;;4959944;28;20094;-80
2023/01/21 07:46:25;;;;;;;32.15;21.58;;;-0.70;59.00;;;;;;4943650;28;20043;-79
2023/01/21 07:48:52;;;;;;;31.02;20.65;;;-0.60;59.70;;;;;;4951594;28;20062;-85
2023/01/21 07:51:18;;;;;;;30.45;21.17;;;-0.40;60.20;;;;;;4945036;28;20034;-81
2023/01/21 07:53:45;;;;;;;26.27;18.90;;;-0.20;60.20;;;;;;4945778;28;20467;-78
2023/01/21 07:56:11;;;;;;;21.70;16.88;;;0.00;60.20;;;;;;4946454;28;20637;-77
2023/01/21 07:58:37;;;;;;;26.83;17.35;;;0.10;60.00;;;;;;4951848;28;20097;-77
2023/01/21 08:01:06;;;;;;;22.65;17.75;;;0.10;59.90;;;;;;4946700;28;20081;-77
2023/01/21 08:03:33;;;;;;;22.40;16.60;;;0.10;59.80;;;;;;4943753;28;20039;-78
2023/01/21 08:06:00;;;;;;;27.13;17.10;;;0.10;59.80;;;;;;4944953;28;20035;-78
2023/01/21 08:08:26;;;;;;;24.08;16.70;;;0.10;59.90;;;;;;4949297;28;20501;-77
2023/01/21 08:10:53;;;;;;;27.42;18.70;;;0.00;59.80;;;;;;4943580;28;20023;-77
2023/01/21 08:13:19;;;;;;;23.35;15.95;;;0.00;60.00;;;;;;4944525;28;20410;-77
2023/01/21 08:15:53;;;;;;;20.20;13.95;;;-0.10;59.90;;;;;;4968999;28;20525;-81
2023/01/21 08:18:21;;;;;;;24.70;16.90;;;-0.10;60.00;;;;;;4963889;28;20117;-80
2023/01/21 08:20:47;;;;;;;19.65;16.65;;;-0.10;60.20;;;;;;4956216;28;20278;-82
2023/01/21 08:23:13;;;;;;;23.33;16.70;;;-0.10;60.20;;;;;;4962147;28;20538;-82
2023/01/21 08:25:40;;;;;;;22.13;17.00;;;-0.10;60.20;;;;;;4963044;28;20087;-82
2023/01/21 08:28:06;;;;;;;22.90;16.65;;;-0.10;60.20;;;;;;4953604;28;20039;-82
2023/01/21 08:30:34;;;;;;;24.95;16.73;;;0.00;60.40;;;;;;4955431;28;20074;-80
2023/01/21 08:33:00;;;;;;;21.92;16.65;;;-0.10;60.20;;;;;;4959758;28;20058;-81
2023/01/21 08:35:26;;;;;;;18.45;15.98;;;-0.10;60.30;;;;;;4954769;28;20035;-80
2023/01/21 08:37:58;;;;;;;22.30;16.67;;;-0.10;60.30;;;;;;4935932;28;20111;-78
2023/01/21 08:40:26;;;;;;;24.48;16.40;;;0.00;61.00;;;;;;4953391;28;20209;-75
2023/01/21 08:43:02;;;;;;;20.67;15.35;;;-0.10;60.30;;;;;;4944338;28;20049;-78
2023/01/21 08:45:29;;;;;;;24.83;16.58;;;-0.10;60.40;;;;;;4944749;28;20035;-77
2023/01/21 08:47:55;;;;;;;25.40;16.95;;;0.00;60.50;;;;;;4944819;28;20125;-79
2023/01/21 08:50:22;;;;;;;27.20;19.55;;;0.00;60.50;;;;;;4949816;28;20526;-80
2023/01/21 08:52:53;;;;;;;25.30;17.35;;;0.00;60.40;;;;;;4960260;28;20608;-77
2023/01/21 08:55:21;;;;;;;29.45;19.05;;;0.10;60.60;;;;;;4955487;28;20552;-76
2023/01/21 08:57:50;;;;;;;26.70;17.70;;;0.10;60.50;;;;;;4960714;28;20382;-76
2023/01/21 09:00:17;;;;;;;29.92;18.63;;;0.20;60.70;;;;;;4950550;28;20030;-75
2023/01/21 09:02:44;;;;;;;25.88;17.38;;;0.20;60.60;;;;;;4947868;28;20036;-76
2023/01/21 09:05:09;;;;;;;27.70;18.85;;;0.20;60.50;;;;;;4947599;28;20584;-78
2023/01/21 09:07:35;;;;;;;28.50;20.05;;;0.30;60.70;;;;;;4939535;29;20035;-77
2023/01/21 09:10:03;;;;;;;25.75;18.73;;;0.40;60.90;;;;;;4945437;28;20045;-78
2023/01/21 09:12:30;;;;;;;27.08;19.05;;;0.50;60.90;;;;;;4945766;28;20027;-78
2023/01/21 09:14:56;;;;;;;27.58;19.02;;;0.60;61.10;;;;;;4947839;28;20391;-78
2023/01/21 09:17:22;;;;;;;27.75;17.92;;;0.70;61.10;;;;;;4947233;28;20047;-78
2023/01/21 09:19:48;;;;;;;27.65;18.35;;;0.80;61.20;;;;;;4938178;28;20550;-78
2023/01/21 09:22:15;;;;;;;27.92;19.58;;;0.80;61.20;;;;;;4940851;28;20396;-77
2023/01/21 09:24:41;;;;;;;27.55;20.00;;;0.90;61.30;;;;;;4940241;28;20042;-79
2023/01/21 09:27:08;;;;;;;30.55;18.65;;;0.90;61.20;;;;;;4938579;28;20036;-77
2023/01/21 09:29:35;;;;;;;30.52;19.45;;;1.00;61.30;;;;;;4940488;28;20039;-78
2023/01/21 09:32:01;;;;;;;25.70;18.17;;;1.10;61.40;;;;;;4946613;28;20391;-77
2023/01/21 09:34:28;;;;;;;30.02;19.60;;;1.10;61.40;;;;;;4945627;28;20050;-77
2023/01/21 09:36:53;;;;;;;25.27;16.83;;;1.20;61.50;;;;;;4945465;28;20046;-76
2023/01/21 09:39:19;;;;;;;27.52;19.10;;;1.30;61.60;;;;;;4942386;28;20047;-76
2023/01/21 09:41:52;;;;;;;26.27;17.98;;;1.40;61.80;;;;;;4940643;28;20027;-76
2023/01/21 09:44:35;;;;;;;24.40;16.90;;;1.40;61.70;;;;;;4945133;28;20114;-76
2023/01/21 09:47:16;;;;;;;24.67;17.65;;;1.50;61.80;;;;;;4946824;28;20066;-76
2023/01/21 09:49:50;;;;;;;25.63;17.52;;;1.60;61.80;;;;;;4944405;28;20127;-75
2023/01/21 09:52:38;;;;;;;24.40;17.13;;;1.70;61.90;;;;;;4962260;28;20114;-74
2023/01/21 09:55:09;;;;;;;25.02;17.88;;;1.80;62.00;;;;;;4936101;28;20046;-75
2023/01/21 09:58:01;;;;;;;25.65;17.30;;;1.90;62.00;;;;;;4946887;28;20047;-76
2023/01/21 10:00:42;;;;;;;25.70;17.98;;;1.90;61.90;;;;;;4931801;28;20039;-74
2023/01/21 10:03:36;;;;;;;22.88;16.45;;;2.10;62.20;;;;;;4955590;28;20058;-75
2023/01/21 10:06:34;;;;;;;23.67;17.20;;;2.10;62.10;;;;;;4944875;28;20032;-76
2023/01/21 10:09:34;;;;;;;21.75;15.77;;;2.20;62.10;;;;;;4947673;28;20408;-76
2023/01/21 10:12:00;;;;;;;23.33;16.70;;;2.30;62.20;;;;;;4945913;28;20031;-76
2023/01/21 10:14:52;;;;;;;22.55;17.00;;;2.40;62.20;;;;;;4945236;28;20062;-76
2023/01/21 10:17:40;;;;;;;22.00;16.52;;;2.50;62.30;;;;;;4946015;28;20047;-77
2023/01/21 10:20:16;;;;;;;20.45;15.43;;;2.50;62.20;;;;;;4947582;28;20172;-75
2023/01/21 10:22:51;;;;;;;21.85;14.52;;;2.60;62.30;;;;;;4956248;28;20039;-76
2023/01/21 10:25:29;;;;;;;22.95;15.90;;;2.60;62.30;;;;;;4945335;28;20696;-76
2023/01/21 10:28:00;;;;;;;21.90;15.80;;;2.70;62.50;;;;;;4953183;28;20113;-76
2023/01/21 10:30:51;;;;;;;20.25;15.02;;;2.70;62.50;;;;;;4941777;28;20383;-75
2023/01/21 10:33:23;;;;;;;21.92;15.27;;;2.70;62.50;;;;;;4956043;28;20117;-76
2023/01/21 10:36:10;;;;;;;20.87;14.60;;;2.70;62.60;;;;;;4945952;28;20877;-75
2023/01/21 10:38:55;;;;;;;21.00;15.23;;;2.70;62.60;;;;;;4940170;28;20305;-74
2023/01/21 10:41:30;;;;;;;20.83;15.38;;;2.80;62.70;;;;;;4943090;28;20035;-77
2023/01/21 10:44:18;;;;;;;20.05;14.73;;;2.90;62.80;;;;;;4952136;28;20042;-77
2023/01/21 10:46:55;;;;;;;21.92;14.25;;;3.00;62.80;;;;;;4949964;28;20059;-75
2023/01/21 10:49:40;;;;;;;19.20;13.35;;;3.00;62.70;;;;;;4949141;28;20062;-75
2023/01/21 10:52:20;;;;;;;20.23;13.93;;;3.10;62.90;;;;;;4953290;28;20028;-75
2023/01/21 10:55:04;;;;;;;18.38;13.23;;;3.10;62.80;;;;;;4945045;28;20142;-76
2023/01/21 10:57:53;;;;;;;19.60;15.00;;;3.20;62.90;;;;;;4946175;29;20569;-80
2023/01/21 11:00:24;;;;;;;20.25;15.48;;;3.20;62.80;;;;;;4945967;28;20065;-79
2023/01/21 11:02:56;;;;;;;18.90;14.90;;;3.30;62.90;;;;;;4934593;28;20027;-79
2023/01/21 11:05:24;;;;;;;17.77;14.10;;;3.40;63.00;;;;;;4946089;28;20039;-79
2023/01/21 11:07:51;;;;;;;19.55;14.35;;;3.50;63.00;;;;;;4937032;28;20036;-78
2023/01/21 11:10:21;;;;;;;17.65;13.98;;;3.50;62.90;;;;;;4942676;28;20672;-78
2023/01/21 11:12:48;;;;;;;21.27;15.82;;;3.60;63.00;;;;;;4946130;28;20046;-79
2023/01/21 11:15:17;;;;;;;22.58;15.55;;;3.70;63.20;;;;;;4944999;28;20035;-79
2023/01/21 11:17:46;;;;;;;22.45;15.98;;;3.70;63.10;;;;;;4944921;28;20043;-79
2023/01/21 11:20:40;;;;;;;22.40;15.18;;;3.70;63.00;;;;;;4943459;28;20047;-78
2023/01/21 11:23:25;;;;;;;19.40;14.75;;;3.80;63.10;;;;;;4945759;28;20036;-77
2023/01/21 11:25:51;;;;;;;23.00;15.27;;;3.90;63.10;;;;;;4948531;28;20035;-77
2023/01/21 11:28:25;;;;;;;23.27;16.25;;;3.90;63.00;;;;;;4949333;28;20035;-78
2023/01/21 11:31:25;;;;;;;19.98;14.25;;;4.00;63.20;;;;;;4945874;28;20054;-78
2023/01/21 11:33:52;;;;;;;23.67;15.48;;;4.00;63.20;;;;;;4927914;28;20035;-78
2023/01/21 11:36:20;;;;;;;18.55;14.65;;;4.00;63.10;;;;;;4944748;28;20035;-77
2023/01/21 11:38:58;;;;;;;23.77;16.00;;;4.00;63.10;;;;;;4943478;28;20055;-78
2023/01/21 11:41:24;;;;;;;21.73;15.05;;;4.00;63.10;;;;;;4927647;28;20093;-76
2023/01/21 11:44:09;;;;;;;21.75;15.95;;;4.00;63.50;;;;;;4934135;28;20047;-78
2023/01/21 11:46:39;;;;;;;22.10;15.95;;;4.10;63.20;;;;;;4931877;28;20055;-79
2023/01/21 11:49:05;;;;;;;21.75;15.43;;;4.10;63.20;;;;;;4938479;28;20038;-78
2023/01/21 11:51:36;;;;;;;22.08;15.27;;;4.10;63.20;;;;;;4949491;28;20031;-78
2023/01/21 11:54:22;;;;;;;23.15;15.90;;;4.10;63.20;;;;;;4939552;28;20368;-74
2023/01/21 11:56:57;;;;;;;22.10;16.58;;;4.10;63.20;;;;;;4942518;28;20121;-78
2023/01/21 11:59:34;;;;;;;23.30;16.40;;;4.20;63.30;;;;;;4944319;28;20043;-77
2023/01/21 12:02:11;;;;;;;25.15;17.52;;;4.30;63.40;;;;;;4944084;28;20466;-78
2023/01/21 12:04:46;;;;;;;19.90;14.50;;;4.30;63.20;;;;;;4944638;28;20507;-78
2023/01/21 12:07:26;;;;;;;21.67;16.00;;;4.30;63.10;;;;;;4944638;28;20031;-77
2023/01/21 12:10:07;;;;;;;23.48;16.02;;;4.40;63.20;;;;;;4953364;28;20147;-79
2023/01/21 12:12:46;;;;;;;26.00;17.05;;;4.40;63.20;;;;;;4943914;28;20035;-79
2023/01/21 12:15:27;;;;;;;19.75;15.27;;;4.40;63.10;;;;;;4944162;28;20558;-78
2023/01/21 12:18:21;;;;;;;20.88;15.95;;;4.40;63.10;;;;;;4943397;28;20584;-77
2023/01/21 12:20:56;;;;;;;22.80;15.90;;;4.30;62.90;;;;;;4933722;28;20031;-77
2023/01/21 12:23:36;;;;;;;25.38;15.52;;;4.40;63.20;;;;;;4943592;28;20549;-79
2023/01/21 12:26:29;;;;;;;24.10;16.88;;;4.40;63.20;;;;;;4945457;28;20036;-77
2023/01/21 12:29:29;;;;;;;23.20;16.60;;;4.40;63.20;;;;;;4934357;28;20035;-82
2023/01/21 12:32:01;;;;;;;24.67;16.15;;;4.50;63.20;;;;;;4946774;28;20063;-79
2023/01/21 12:34:42;;;;;;;21.45;16.05;;;4.60;63.30;;;;;;4947500;28;20043;-77
2023/01/21 12:37:11;;;;;;;25.35;16.48;;;4.70;63.60;;;;;;4947823;28;20046;-79
2023/01/21 12:39:39;;;;;;;25.20;16.52;;;5.00;64.20;;;;;;4949546;28;20073;-82
2023/01/21 12:42:21;;;;;;;22.88;15.95;;;5.20;64.20;;;;;;4951165;28;20475;-80
2023/01/21 12:44:59;;;;;;;24.52;16.50;;;5.40;64.30;;;;;;4955325;28;20035;-81
2023/01/21 12:47:31;;;;;;;20.85;15.63;;;5.70;64.40;;;;;;4951490;28;20101;-83
2023/01/21 12:50:09;;;;;;;24.92;15.98;;;5.90;64.30;;;;;;4955599;28;20029;-81
2023/01/21 12:53:02;;;;;;;24.30;16.10;;;6.00;64.40;;;;;;4946648;28;20043;-82
2023/01/21 12:55:54;;;;;;;20.73;15.60;;;6.10;64.40;;;;;;4959372;28;20012;-81
2023/01/21 12:58:23;;;;;;;21.55;16.33;;;6.30;64.60;;;;;;4967766;28;20053;-83